Amissville, VA

11:35 AM EDT on April 27, 2015 (GMT -0400)
Wheatley | | Change Station
CLOSE
Current Station
Personal Weather Station
Location: Orlean, VA
Elevation: 459 ft
Nearby Weather Stations

Elev 459 ft 38.71 °N, 77.96 °W | Updated 15 seconds ago

Partly Cloudy
Partly Cloudy
56.5 °F
Feels Like 56.5 °F
N
7.0
Wind Variable Wind from NNW
Gusts 10.0 mph

Today
High -- | Low -- °F
--% Chance of Precip.
Yesterday
High -- | Low -- °F
Precip. -- in
6:19 AM 8:00 PM
Waxing Gibbous, 65% visible
Pressure 29.81 in
Visibility 10.0 miles
Clouds Mostly Cloudy 6000 ft
Dew Point 35 °F
Humidity 45%
Rainfall 0.00 in
Snow Depth Not available.
UV 5 out of 12
Pollen 5.60 out of 12
Air Quality Not available.
Flu Activity Sporadic
METAR KCJR 271516Z AUTO 31007KT 10SM BKN060 14/01 A2981 RMK AO2

More Conditions Fewer Conditions

Pressure 29.81 in
Visibility 10.0 miles
Clouds Mostly Cloudy 6000 ft
Dew Point 35 °F
Humidity 45%
Rainfall 0.00 in
Snow Depth Not available.
UV 5 out of 12
Pollen 5.60 out of 12
Air Quality Not available.
Flu Activity Sporadic
METAR KCJR 271516Z AUTO 31007KT 10SM BKN060 14/01 A2981 RMK AO2

More Conditions Fewer Conditions

10-Day Weather Forecast

Almanac

Astronomy

Apr. 27, 2015 Rise Set
Actual Time
Civil Twilight
Nautical Twilight
Astronomical Twilight
Moon
Length of Visible Light
Length of Day
Tomorrow will be .
, % of the Moon is Illuminated

Today's Extremes

State Highs State Lows

Community

WunderPhotos

Upload Photos

1,817,327 photos uploaded!

WunderBlogs® & News

Nearby

Air Quality

  Air Quality AQ Index Pollutant
Not available.

Snow Depth

Station Depth Elevation

Earthquake Activity

City Distance Mag. Time & Date
Minimum magnitude displayed is 2.5.

Coastal Water Temperatures

Place Temperature

Stations

Nearby Weather Stations

Station Location Temp. Windchill Dew Point Humidity Wind Precip. Elev Updated Type